createdAt,value
2023-05-25T00:01:44.829Z,16.30
2023-05-25T00:04:17.075Z,16.20
2023-05-25T00:06:45.487Z,16.20
2023-05-25T00:09:12.533Z,16.20
2023-05-25T00:11:39.590Z,16.10
2023-05-25T00:14:08.349Z,16.00
2023-05-25T00:16:37.736Z,15.90
2023-05-25T00:19:10.686Z,15.90
2023-05-25T00:21:41.479Z,15.90
2023-05-25T00:24:08.505Z,15.80
2023-05-25T00:26:35.584Z,15.80
2023-05-25T00:29:02.958Z,15.80
2023-05-25T00:31:33.578Z,15.70
2023-05-25T00:34:00.690Z,15.70
2023-05-25T00:36:27.596Z,15.70
2023-05-25T00:38:54.409Z,15.70
2023-05-25T00:41:21.240Z,15.70
2023-05-25T00:43:48.036Z,15.70
2023-05-25T00:46:15.039Z,15.70
2023-05-25T00:48:44.429Z,15.70
2023-05-25T00:51:11.482Z,15.70
2023-05-25T00:53:38.533Z,15.70
2023-05-25T00:56:15.991Z,15.70
2023-05-25T00:58:45.400Z,15.70
2023-05-25T01:01:12.446Z,15.70
2023-05-25T01:03:40.287Z,15.70
2023-05-25T01:06:13.254Z,15.70
2023-05-25T01:08:44.203Z,15.70
2023-05-25T01:11:11.783Z,15.70
2023-05-25T01:13:38.843Z,15.70
2023-05-25T01:16:09.609Z,15.80
2023-05-25T01:18:41.927Z,15.70
2023-05-25T01:21:24.049Z,15.60
2023-05-25T01:23:56.669Z,15.50
2023-05-25T01:26:26.573Z,15.50
2023-05-25T01:28:54.062Z,15.50
2023-05-25T01:31:24.073Z,15.50
2023-05-25T01:33:53.455Z,15.50
2023-05-25T01:36:21.004Z,15.50
2023-05-25T01:38:47.903Z,15.50
2023-05-25T01:41:15.057Z,15.50
2023-05-25T01:43:41.839Z,15.50
2023-05-25T01:46:17.982Z,15.50
2023-05-25T01:49:21.337Z,15.50
2023-05-25T01:51:52.812Z,15.50
2023-05-25T01:54:20.024Z,15.50
2023-05-25T01:56:48.278Z,15.50
2023-05-25T01:59:15.619Z,15.50
2023-05-25T02:01:42.971Z,15.50
2023-05-25T02:04:09.852Z,15.40
2023-05-25T02:06:37.228Z,15.30
2023-05-25T02:09:04.534Z,15.30
2023-05-25T02:11:31.325Z,15.30
2023-05-25T02:13:58.130Z,15.30
2023-05-25T02:16:25.036Z,15.30
2023-05-25T02:18:51.963Z,15.30
2023-05-25T02:21:18.761Z,15.30
2023-05-25T02:23:49.355Z,15.30
2023-05-25T02:26:16.821Z,15.10
2023-05-25T02:28:45.987Z,15.20
2023-05-25T02:31:12.870Z,15.20
2023-05-25T02:33:41.968Z,15.20
2023-05-25T02:36:09.037Z,15.20
2023-05-25T02:38:35.831Z,15.20
2023-05-25T02:41:05.302Z,15.20
2023-05-25T02:43:32.708Z,15.20
2023-05-25T02:45:59.502Z,15.10
2023-05-25T02:48:26.323Z,15.10
2023-05-25T02:50:55.432Z,15.10
2023-05-25T02:53:22.466Z,15.10
2023-05-25T02:55:49.314Z,15.20
2023-05-25T02:58:16.674Z,15.20
2023-05-25T03:00:46.932Z,15.30
2023-05-25T03:03:13.911Z,15.20
2023-05-25T03:05:41.875Z,15.20
2023-05-25T03:08:08.697Z,15.20
2023-05-25T03:10:35.502Z,15.20
2023-05-25T03:13:02.295Z,15.20
2023-05-25T03:15:29.130Z,15.20
2023-05-25T03:18:01.145Z,15.20
2023-05-25T03:20:28.419Z,15.30
2023-05-25T03:22:55.652Z,15.30
2023-05-25T03:25:22.451Z,15.30
2023-05-25T03:27:52.977Z,15.30
2023-05-25T03:30:21.217Z,15.30
2023-05-25T03:32:48.104Z,15.40
2023-05-25T03:35:15.058Z,15.40
2023-05-25T03:37:41.883Z,15.40
2023-05-25T03:40:11.864Z,15.40
2023-05-25T03:42:38.813Z,15.40
2023-05-25T03:45:06.641Z,15.40
2023-05-25T03:47:33.619Z,15.40
2023-05-25T03:50:02.728Z,15.40
2023-05-25T03:52:29.638Z,15.40
2023-05-25T03:54:56.763Z,15.30
2023-05-25T03:57:23.599Z,15.40
2023-05-25T03:59:50.402Z,15.30
2023-05-25T04:02:22.316Z,15.30
2023-05-25T04:04:52.096Z,15.30
2023-05-25T04:07:19.933Z,15.40
2023-05-25T04:09:46.728Z,15.40
2023-05-25T04:12:15.788Z,15.30
2023-05-25T04:14:42.730Z,15.30
2023-05-25T04:17:09.806Z,15.20
2023-05-25T04:19:36.610Z,15.20
2023-05-25T04:22:03.514Z,15.20
2023-05-25T04:24:34.261Z,15.20
2023-05-25T04:27:06.114Z,15.10
2023-05-25T04:29:35.230Z,15.20
2023-05-25T04:32:02.905Z,15.20
2023-05-25T04:34:33.913Z,15.20
2023-05-25T04:37:05.462Z,15.20
2023-05-25T04:39:32.954Z,15.30
2023-05-25T04:42:04.391Z,15.30
2023-05-25T04:44:32.162Z,15.40
2023-05-25T04:47:02.525Z,15.40
2023-05-25T04:49:29.634Z,15.40
2023-05-25T04:51:56.504Z,15.40
2023-05-25T04:54:27.691Z,15.40
2023-05-25T04:56:57.381Z,15.40
2023-05-25T04:59:26.775Z,15.30
2023-05-25T05:01:53.655Z,15.30
2023-05-25T05:04:22.913Z,15.30
2023-05-25T05:06:52.220Z,15.20
2023-05-25T05:09:19.234Z,15.20
2023-05-25T05:11:46.135Z,15.10
2023-05-25T05:14:12.903Z,15.10
2023-05-25T05:16:39.720Z,15.00
2023-05-25T05:19:06.821Z,15.00
2023-05-25T05:21:33.643Z,14.80
2023-05-25T05:24:00.587Z,15.00
2023-05-25T05:26:27.844Z,15.00
2023-05-25T05:29:02.113Z,15.10
2023-05-25T05:31:31.828Z,15.10
2023-05-25T05:33:58.711Z,15.20
2023-05-25T05:36:25.789Z,15.20
2023-05-25T05:38:52.696Z,15.20
2023-05-25T05:41:19.529Z,15.20
2023-05-25T05:43:50.771Z,15.20
2023-05-25T05:46:17.843Z,15.30
2023-05-25T05:48:46.928Z,15.40
2023-05-25T05:51:13.799Z,15.40
2023-05-25T05:53:40.911Z,15.50
2023-05-25T05:56:17.445Z,15.50
2023-05-25T05:58:44.760Z,15.60
2023-05-25T06:01:11.543Z,15.60
2023-05-25T06:03:38.683Z,15.60
2023-05-25T06:06:08.261Z,15.70
2023-05-25T06:08:35.230Z,15.70
2023-05-25T06:11:04.158Z,15.70
2023-05-25T06:13:31.067Z,15.70
2023-05-25T06:15:57.909Z,15.80
2023-05-25T06:18:24.703Z,15.80
2023-05-25T06:20:51.559Z,15.70
2023-05-25T06:23:20.850Z,15.80
2023-05-25T06:25:47.969Z,15.80
2023-05-25T06:28:15.377Z,15.80
2023-05-25T06:30:42.172Z,15.80
2023-05-25T06:33:09.075Z,15.70
2023-05-25T06:35:35.964Z,15.70
2023-05-25T06:38:03.118Z,15.70
2023-05-25T06:40:29.949Z,15.60
2023-05-25T06:42:56.897Z,15.60
2023-05-25T06:45:23.787Z,15.70
2023-05-25T06:47:50.662Z,15.60
2023-05-25T06:50:18.222Z,15.60
2023-05-25T06:52:47.457Z,15.50
2023-05-25T06:55:14.263Z,15.50
2023-05-25T06:57:41.338Z,15.50
2023-05-25T07:00:12.177Z,15.60
2023-05-25T07:02:39.526Z,15.60
2023-05-25T07:05:06.759Z,15.60
2023-05-25T07:07:33.689Z,15.70
2023-05-25T07:10:01.505Z,15.70
2023-05-25T07:12:31.505Z,15.80
2023-05-25T07:14:58.543Z,15.80
2023-05-25T07:17:25.551Z,15.80
2023-05-25T07:19:52.690Z,15.80
2023-05-25T07:22:19.703Z,15.80
2023-05-25T07:24:46.972Z,15.90
2023-05-25T07:27:16.690Z,15.80
2023-05-25T07:29:43.546Z,15.90
2023-05-25T07:32:12.813Z,15.90
2023-05-25T07:34:39.660Z,15.80
2023-05-25T07:37:06.623Z,15.80
2023-05-25T07:39:33.425Z,15.80
2023-05-25T07:42:01.958Z,15.80
2023-05-25T07:44:31.390Z,15.80
2023-05-25T07:46:58.233Z,15.70
2023-05-25T07:49:25.127Z,15.80
2023-05-25T07:51:51.907Z,15.80
2023-05-25T07:54:18.716Z,15.80
2023-05-25T07:56:45.509Z,15.90
2023-05-25T07:59:12.363Z,15.90
2023-05-25T08:01:39.399Z,15.90
2023-05-25T08:04:06.400Z,15.90
2023-05-25T08:06:34.413Z,15.90
2023-05-25T08:09:03.062Z,16.00
2023-05-25T08:11:31.264Z,16.00
2023-05-25T08:13:58.084Z,16.10
2023-05-25T08:16:27.188Z,16.20
2023-05-25T08:18:54.074Z,16.30
2023-05-25T08:21:21.151Z,16.30
2023-05-25T08:23:48.091Z,16.40
2023-05-25T08:26:34.298Z,16.50
2023-05-25T08:29:04.701Z,16.60
2023-05-25T08:31:32.713Z,16.70
2023-05-25T08:34:00.627Z,16.70
2023-05-25T08:36:27.649Z,16.80
2023-05-25T08:38:57.133Z,16.90
2023-05-25T08:41:24.070Z,17.00
2023-05-25T08:43:51.040Z,17.00
2023-05-25T08:46:30.082Z,17.10
2023-05-25T08:49:02.908Z,17.10
2023-05-25T08:51:37.045Z,17.10
2023-05-25T08:54:12.579Z,17.20
2023-05-25T08:56:45.598Z,17.30
2023-05-25T08:59:43.700Z,17.40
2023-05-25T09:02:34.867Z,17.40
2023-05-25T09:05:02.208Z,17.40
2023-05-25T09:07:29.508Z,17.50
2023-05-25T09:09:56.498Z,17.60
2023-05-25T09:12:23.853Z,17.60
2023-05-25T09:14:51.203Z,17.70
2023-05-25T09:17:18.745Z,17.70
2023-05-25T09:19:46.508Z,17.70
2023-05-25T09:22:16.743Z,17.80
2023-05-25T09:24:45.573Z,17.70
2023-05-25T09:27:13.539Z,17.60
2023-05-25T09:29:46.439Z,17.60
2023-05-25T09:32:13.258Z,17.60
2023-05-25T09:34:40.098Z,17.60
2023-05-25T09:37:14.546Z,17.60
2023-05-25T09:39:44.501Z,17.60
2023-05-25T09:42:11.787Z,17.60
2023-05-25T09:44:39.816Z,17.60
2023-05-25T09:47:09.026Z,17.50
2023-05-25T09:49:36.420Z,17.40
2023-05-25T09:52:03.278Z,17.40
2023-05-25T09:54:30.098Z,17.40
2023-05-25T09:57:05.258Z,17.40
2023-05-25T09:59:32.243Z,17.50
2023-05-25T10:02:01.630Z,17.50
2023-05-25T10:04:28.556Z,17.50
2023-05-25T10:06:56.840Z,17.60
2023-05-25T10:09:23.663Z,17.60
2023-05-25T10:11:51.499Z,17.60
2023-05-25T10:14:22.884Z,17.60
2023-05-25T10:16:51.955Z,17.60
2023-05-25T10:19:34.634Z,17.70
2023-05-25T10:22:17.051Z,17.80
2023-05-25T10:24:57.941Z,17.90
2023-05-25T10:30:12.601Z,18.00
2023-05-25T10:32:39.532Z,18.10
2023-05-25T10:35:09.126Z,18.20
2023-05-25T10:37:38.191Z,18.30
2023-05-25T10:40:08.563Z,18.40
2023-05-25T10:42:37.180Z,18.40
2023-05-25T10:45:06.495Z,18.50
2023-05-25T10:47:34.854Z,18.60
2023-05-25T10:50:03.115Z,18.70
2023-05-25T10:52:33.206Z,18.70
2023-05-25T10:55:05.037Z,18.80
2023-05-25T10:57:32.246Z,18.90
2023-05-25T11:00:06.548Z,19.10
2023-05-25T11:02:55.943Z,19.30
2023-05-25T11:05:32.561Z,19.50
2023-05-25T11:08:05.105Z,19.90
2023-05-25T11:10:48.455Z,20.50
2023-05-25T11:13:39.758Z,21.00
2023-05-25T11:16:36.141Z,21.30
2023-05-25T11:19:03.351Z,22.00
2023-05-25T11:21:32.909Z,22.40
2023-05-25T11:24:04.356Z,22.90
2023-05-25T11:26:35.286Z,23.40
2023-05-25T11:29:14.931Z,23.80
2023-05-25T11:31:44.069Z,24.20
2023-05-25T11:34:11.951Z,24.30
2023-05-25T11:36:39.467Z,24.10
2023-05-25T11:39:17.046Z,24.10
2023-05-25T11:42:02.006Z,24.00
2023-05-25T11:44:33.784Z,24.20
2023-05-25T11:47:09.849Z,24.40
2023-05-25T11:49:49.864Z,24.50
2023-05-25T11:52:20.448Z,24.40
2023-05-25T11:54:47.455Z,24.20
2023-05-25T11:57:24.961Z,24.00
2023-05-25T12:00:01.210Z,23.80
2023-05-25T12:02:28.178Z,23.60
2023-05-25T12:04:59.702Z,23.50
2023-05-25T12:07:26.793Z,23.40
2023-05-25T12:10:07.929Z,23.30
2023-05-25T12:12:44.544Z,23.30
2023-05-25T12:15:15.140Z,23.30
2023-05-25T12:17:45.117Z,23.30
2023-05-25T12:20:15.547Z,23.30
2023-05-25T12:22:42.756Z,23.30
2023-05-25T12:25:13.212Z,23.40
2023-05-25T12:27:42.608Z,23.40
2023-05-25T12:30:10.556Z,23.50
2023-05-25T12:33:04.484Z,23.50
2023-05-25T12:35:45.420Z,23.60
2023-05-25T12:38:17.704Z,23.60
2023-05-25T12:40:45.148Z,23.70
2023-05-25T12:43:13.162Z,23.70
2023-05-25T12:45:41.940Z,23.80
2023-05-25T12:48:08.863Z,23.80
2023-05-25T12:50:38.044Z,23.80
2023-05-25T12:53:04.931Z,23.80
2023-05-25T12:55:33.170Z,23.80
2023-05-25T12:58:06.526Z,23.90
2023-05-25T13:00:37.859Z,23.90
2023-05-25T13:03:05.471Z,23.90
2023-05-25T13:05:35.534Z,23.90
2023-05-25T13:08:03.087Z,23.90
2023-05-25T13:10:32.897Z,24.00
2023-05-25T13:12:59.889Z,24.00
2023-05-25T13:15:27.081Z,23.90
2023-05-25T13:17:54.499Z,23.90
2023-05-25T13:20:22.724Z,23.80
2023-05-25T13:22:50.389Z,23.80
2023-05-25T13:25:17.294Z,23.80
2023-05-25T13:27:46.812Z,23.70
2023-05-25T13:30:13.869Z,23.60
2023-05-25T13:32:43.579Z,23.60
2023-05-25T13:35:18.659Z,23.50
2023-05-25T13:37:53.143Z,23.50
2023-05-25T13:40:22.462Z,23.60
2023-05-25T13:42:49.939Z,23.60
2023-05-25T13:45:16.749Z,23.60
2023-05-25T13:47:44.101Z,23.80
2023-05-25T13:50:11.695Z,23.90
2023-05-25T13:52:41.002Z,24.00
2023-05-25T13:55:08.201Z,24.00
2023-05-25T13:57:35.124Z,24.10
2023-05-25T14:00:04.278Z,24.00
2023-05-25T14:02:35.190Z,24.00
2023-05-25T14:05:02.185Z,23.90
2023-05-25T14:07:28.971Z,23.90
2023-05-25T14:10:00.284Z,23.90
2023-05-25T14:12:32.242Z,24.10
2023-05-25T14:14:59.073Z,24.40
2023-05-25T14:17:28.433Z,25.10
2023-05-25T14:19:55.521Z,25.60
2023-05-25T14:22:22.353Z,25.80
2023-05-25T14:24:49.108Z,26.30
2023-05-25T14:27:21.092Z,27.00
2023-05-25T14:29:52.315Z,27.40
2023-05-25T14:32:19.207Z,27.20
2023-05-25T14:34:46.026Z,26.90
2023-05-25T14:37:12.967Z,26.60
2023-05-25T14:39:44.542Z,26.30
2023-05-25T14:42:11.425Z,26.00
2023-05-25T14:44:38.245Z,25.70
2023-05-25T14:47:05.569Z,25.50
2023-05-25T14:49:32.453Z,25.50
2023-05-25T14:51:59.352Z,25.40
2023-05-25T14:54:26.286Z,25.30
2023-05-25T14:56:55.361Z,25.10
2023-05-25T14:59:24.485Z,25.10
2023-05-25T15:01:53.522Z,25.20
2023-05-25T15:04:22.760Z,25.20
2023-05-25T15:06:49.769Z,25.10
2023-05-25T15:09:19.233Z,25.00
2023-05-25T15:11:48.495Z,24.80
2023-05-25T15:14:16.458Z,24.70
2023-05-25T15:16:43.545Z,24.50
2023-05-25T15:19:13.222Z,24.40
2023-05-25T15:21:42.037Z,24.30
2023-05-25T15:24:09.022Z,24.20
2023-05-25T15:26:35.805Z,24.10
2023-05-25T15:29:02.583Z,24.00
2023-05-25T15:31:31.901Z,24.00
2023-05-25T15:34:00.721Z,24.00
2023-05-25T15:36:27.566Z,23.90
2023-05-25T15:38:54.349Z,23.90
2023-05-25T15:41:21.904Z,23.90
2023-05-25T15:43:52.383Z,23.80
2023-05-25T15:46:21.484Z,23.80
2023-05-25T15:48:48.425Z,23.70
2023-05-25T15:51:15.358Z,23.70
2023-05-25T15:53:42.184Z,23.70
2023-05-25T15:56:09.002Z,23.60
2023-05-25T15:58:35.910Z,23.60
2023-05-25T16:01:05.138Z,23.60
2023-05-25T16:03:32.093Z,23.60
2023-05-25T16:06:03.653Z,23.60
2023-05-25T16:08:32.902Z,23.50
2023-05-25T16:10:59.672Z,23.60
2023-05-25T16:13:26.477Z,23.50
2023-05-25T16:15:53.370Z,23.50
2023-05-25T16:18:22.467Z,23.40
2023-05-25T16:20:55.830Z,23.40
2023-05-25T16:23:23.549Z,23.40
2023-05-25T16:25:52.693Z,23.30
2023-05-25T16:28:19.572Z,23.30
2023-05-25T16:30:46.375Z,23.30
2023-05-25T16:33:13.217Z,23.30
2023-05-25T16:35:42.466Z,23.20
2023-05-25T16:38:11.647Z,23.20
2023-05-25T16:40:40.758Z,23.20
2023-05-25T16:43:07.554Z,23.20
2023-05-25T16:45:34.420Z,23.10
2023-05-25T16:48:01.401Z,23.10
2023-05-25T16:50:28.262Z,23.10
2023-05-25T16:52:55.184Z,23.10
2023-05-25T16:55:22.055Z,23.00
2023-05-25T16:57:48.907Z,23.00
2023-05-25T17:00:16.140Z,22.90
2023-05-25T17:02:45.553Z,22.90
2023-05-25T17:05:12.520Z,22.90
2023-05-25T17:07:40.310Z,22.90
2023-05-25T17:10:08.270Z,22.90
2023-05-25T17:12:37.534Z,22.80
2023-05-25T17:15:05.057Z,22.80
2023-05-25T17:17:32.009Z,22.80
2023-05-25T17:20:01.387Z,22.80
2023-05-25T17:22:28.162Z,22.80
2023-05-25T17:24:57.254Z,22.70
2023-05-25T17:27:24.026Z,22.70
2023-05-25T17:29:50.831Z,22.70
2023-05-25T17:32:22.434Z,22.60
2023-05-25T17:34:51.773Z,22.70
2023-05-25T17:37:19.222Z,22.70
2023-05-25T17:39:47.756Z,22.60
2023-05-25T17:42:14.607Z,22.60
2023-05-25T17:44:42.649Z,22.60
2023-05-25T17:47:11.760Z,22.60
2023-05-25T17:49:38.595Z,22.50
2023-05-25T17:52:08.888Z,22.50
2023-05-25T17:54:35.755Z,22.40
2023-05-25T17:57:02.656Z,22.40
2023-05-25T17:59:29.521Z,22.40
2023-05-25T18:01:56.456Z,22.40
2023-05-25T18:04:23.369Z,22.40
2023-05-25T18:06:52.685Z,22.40
2023-05-25T18:09:19.827Z,22.30
2023-05-25T18:11:48.988Z,22.30
2023-05-25T18:14:15.903Z,22.30
2023-05-25T18:16:44.714Z,22.20
2023-05-25T18:19:11.769Z,22.30
2023-05-25T18:21:39.545Z,22.20
2023-05-25T18:24:14.128Z,22.20
2023-05-25T18:26:43.984Z,22.10
2023-05-25T18:29:10.879Z,22.10
2023-05-25T18:31:45.844Z,22.10
2023-05-25T18:34:13.187Z,22.00
2023-05-25T18:36:40.029Z,22.00
2023-05-25T18:39:06.863Z,22.00
2023-05-25T18:41:33.732Z,21.90
2023-05-25T18:44:00.537Z,21.90
2023-05-25T18:46:28.581Z,21.90
2023-05-25T18:48:55.872Z,21.80
2023-05-25T18:51:25.659Z,21.80
2023-05-25T18:53:55.100Z,21.80
2023-05-25T18:56:22.867Z,21.70
2023-05-25T18:58:50.874Z,21.80
2023-05-25T19:01:17.798Z,21.70
2023-05-25T19:03:44.782Z,21.70
2023-05-25T19:06:11.829Z,21.70
2023-05-25T19:08:38.618Z,21.70
2023-05-25T19:11:05.836Z,21.60
2023-05-25T19:13:32.630Z,21.60
2023-05-25T19:16:01.490Z,21.60
2023-05-25T19:18:28.413Z,21.60
2023-05-25T19:20:55.492Z,21.60
2023-05-25T19:23:22.296Z,21.60
2023-05-25T19:25:51.510Z,21.60
2023-05-25T19:28:20.637Z,21.60
2023-05-25T19:30:52.248Z,21.60
2023-05-25T19:33:21.437Z,21.50
2023-05-25T19:35:48.713Z,21.50
2023-05-25T19:38:15.973Z,21.50
2023-05-25T19:40:42.813Z,21.50
2023-05-25T19:43:09.994Z,21.50
2023-05-25T19:45:36.910Z,21.50
2023-05-25T19:48:04.110Z,21.40
2023-05-25T19:50:31.003Z,21.40
2023-05-25T19:52:58.686Z,21.40
2023-05-25T19:55:25.752Z,21.40
2023-05-25T19:57:55.371Z,21.40
2023-05-25T20:00:26.688Z,21.40
2023-05-25T20:02:53.828Z,21.40
2023-05-25T20:05:20.737Z,21.40
2023-05-25T20:07:47.662Z,21.30
2023-05-25T20:10:16.943Z,21.30
2023-05-25T20:12:43.771Z,21.30
2023-05-25T20:15:13.023Z,21.30
2023-05-25T20:17:39.857Z,21.30
2023-05-25T20:20:07.235Z,21.20
2023-05-25T20:22:36.416Z,21.20
2023-05-25T20:25:03.294Z,21.20
2023-05-25T20:27:32.455Z,21.20
2023-05-25T20:29:59.238Z,21.20
2023-05-25T20:32:26.057Z,21.20
2023-05-25T20:34:52.897Z,21.20
2023-05-25T20:37:21.965Z,21.20
2023-05-25T20:39:48.775Z,21.10
2023-05-25T20:42:15.590Z,21.10
2023-05-25T20:44:42.430Z,21.00
2023-05-25T20:47:11.387Z,21.00
2023-05-25T20:49:38.236Z,21.00
2023-05-25T20:52:05.305Z,21.00
2023-05-25T20:54:34.573Z,21.00
2023-05-25T20:57:04.058Z,21.00
2023-05-25T20:59:31.847Z,21.00
2023-05-25T21:01:58.778Z,21.00
2023-05-25T21:04:25.881Z,21.00
2023-05-25T21:06:52.689Z,20.90
2023-05-25T21:09:19.592Z,20.90
2023-05-25T21:11:46.405Z,20.90
2023-05-25T21:14:16.068Z,20.90
2023-05-25T21:16:43.676Z,20.90
2023-05-25T21:19:11.554Z,20.80
2023-05-25T21:21:38.370Z,20.80
2023-05-25T21:24:05.616Z,20.70
2023-05-25T21:26:37.069Z,20.70
2023-05-25T21:29:07.718Z,20.70
2023-05-25T21:31:34.759Z,20.70
2023-05-25T21:34:04.433Z,20.60
2023-05-25T21:36:32.402Z,20.60
2023-05-25T21:38:59.190Z,20.60
2023-05-25T21:41:27.318Z,20.50
2023-05-25T21:43:54.104Z,20.50
2023-05-25T21:46:20.886Z,20.40
2023-05-25T21:48:47.710Z,20.30
2023-05-25T21:51:14.500Z,20.30
2023-05-25T21:53:41.379Z,20.20
2023-05-25T21:56:08.223Z,20.20
2023-05-25T21:58:35.060Z,20.20
2023-05-25T22:01:01.947Z,20.20
2023-05-25T22:03:28.856Z,20.20
2023-05-25T22:05:55.745Z,20.20
2023-05-25T22:08:22.573Z,20.10
2023-05-25T22:10:51.881Z,20.10
2023-05-25T22:13:18.666Z,20.10
2023-05-25T22:15:48.317Z,20.10
2023-05-25T22:18:15.122Z,20.10
2023-05-25T22:20:42.352Z,20.00
2023-05-25T22:23:11.406Z,20.00
2023-05-25T22:25:38.192Z,20.00
2023-05-25T22:28:05.072Z,19.90
2023-05-25T22:30:31.984Z,19.90
2023-05-25T22:32:58.849Z,19.80
2023-05-25T22:35:25.702Z,19.80
2023-05-25T22:37:52.694Z,19.70
2023-05-25T22:40:19.471Z,19.70
2023-05-25T22:42:50.225Z,19.60
2023-05-25T22:45:20.548Z,19.60
2023-05-25T22:47:47.856Z,19.60
2023-05-25T22:50:14.779Z,19.60
2023-05-25T22:52:43.885Z,19.50
2023-05-25T22:55:11.049Z,19.50
2023-05-25T22:57:38.112Z,19.40
2023-05-25T23:00:05.427Z,19.40
2023-05-25T23:02:32.379Z,19.40
2023-05-25T23:04:59.294Z,19.40
2023-05-25T23:07:26.301Z,19.40
2023-05-25T23:09:53.136Z,19.30
2023-05-25T23:12:20.089Z,19.30
2023-05-25T23:14:46.978Z,19.20
2023-05-25T23:17:13.923Z,19.20
2023-05-25T23:19:44.823Z,19.20
2023-05-25T23:22:11.697Z,19.20
2023-05-25T23:24:38.750Z,19.20
2023-05-25T23:27:06.877Z,19.20
2023-05-25T23:29:33.704Z,19.10
2023-05-25T23:32:03.016Z,19.10
2023-05-25T23:34:30.097Z,19.10
2023-05-25T23:36:58.239Z,19.00
2023-05-25T23:39:25.303Z,19.00
2023-05-25T23:41:52.283Z,19.00
2023-05-25T23:44:23.566Z,18.90
2023-05-25T23:46:53.155Z,18.90
2023-05-25T23:49:20.141Z,18.80
2023-05-25T23:51:46.977Z,18.80
2023-05-25T23:54:16.055Z,18.80
2023-05-25T23:56:42.904Z,18.70
2023-05-25T23:59:09.786Z,18.70
